sensor_id;sensor_type;location;lat;lon;timestamp;temperature;humidity
21744;DHT22;11034;48.556;9.342;2023-07-13T19:23:39;21.60;99.10
21744;DHT22;11034;48.556;9.342;2023-07-13T19:26:20;21.20;99.60
21744;DHT22;11034;48.556;9.342;2023-07-13T19:28:50;21.20;99.60
21744;DHT22;11034;48.556;9.342;2023-07-13T19:31:22;21.10;99.90
21744;DHT22;11034;48.556;9.342;2023-07-13T19:33:51;21.00;99.90
21744;DHT22;11034;48.556;9.342;2023-07-13T19:36:21;21.00;99.90
21744;DHT22;11034;48.556;9.342;2023-07-13T19:38:52;20.90;99.90
21744;DHT22;11034;48.556;9.342;2023-07-13T19:41:21;20.70;99.90
21744;DHT22;11034;48.556;9.342;2023-07-13T19:43:51;20.60;99.90
21744;DHT22;11034;48.556;9.342;2023-07-13T19:46:24;20.40;99.90
21744;DHT22;11034;48.556;9.342;2023-07-13T19:48:53;20.30;99.90
21744;DHT22;11034;48.556;9.342;2023-07-13T19:51:21;20.10;99.90
21744;DHT22;11034;48.556;9.342;2023-07-13T19:53:50;20.00;99.90
21744;DHT22;11034;48.556;9.342;2023-07-13T19:56:20;19.90;99.90
21744;DHT22;11034;48.556;9.342;2023-07-13T19:58:48;19.80;99.90
21744;DHT22;11034;48.556;9.342;2023-07-13T20:01:16;19.80;99.90
21744;DHT22;11034;48.556;9.342;2023-07-13T20:03:45;19.60;99.90
21744;DHT22;11034;48.556;9.342;2023-07-13T20:06:24;19.50;99.90
21744;DHT22;11034;48.556;9.342;2023-07-13T20:08:57;19.40;99.90
21744;DHT22;11034;48.556;9.342;2023-07-13T20:11:28;19.40;99.90
21744;DHT22;11034;48.556;9.342;2023-07-13T20:13:56;19.40;99.90
21744;DHT22;11034;48.556;9.342;2023-07-13T20:16:24;19.30;99.90
21744;DHT22;11034;48.556;9.342;2023-07-13T20:18:55;19.30;99.90
21744;DHT22;11034;48.556;9.342;2023-07-13T20:21:23;19.20;99.90
21744;DHT22;11034;48.556;9.342;2023-07-13T20:23:51;19.10;99.90
21744;DHT22;11034;48.556;9.342;2023-07-13T20:26:19;19.10;99.90
21744;DHT22;11034;48.556;9.342;2023-07-13T20:28:50;19.10;99.90
21744;DHT22;11034;48.556;9.342;2023-07-13T20:31:18;19.10;99.90
21744;DHT22;11034;48.556;9.342;2023-07-13T20:33:46;19.10;99.90
21744;DHT22;11034;48.556;9.342;2023-07-13T20:36:14;19.30;99.90
21744;DHT22;11034;48.556;9.342;2023-07-13T20:38:42;19.30;99.90
21744;DHT22;11034;48.556;9.342;2023-07-13T20:41:11;19.30;99.90
21744;DHT22;11034;48.556;9.342;2023-07-13T20:43:40;19.40;99.90
21744;DHT22;11034;48.556;9.342;2023-07-13T20:46:13;19.50;99.90
21744;DHT22;11034;48.556;9.342;2023-07-13T20:48:44;19.60;99.90
21744;DHT22;11034;48.556;9.342;2023-07-13T20:51:16;19.60;99.90
21744;DHT22;11034;48.556;9.342;2023-07-13T20:53:45;19.70;99.90
21744;DHT22;11034;48.556;9.342;2023-07-13T20:56:14;19.80;99.90
21744;DHT22;11034;48.556;9.342;2023-07-13T20:58:45;19.70;99.90
21744;DHT22;11034;48.556;9.342;2023-07-13T21:01:18;19.70;99.90
21744;DHT22;11034;48.556;9.342;2023-07-13T21:03:57;19.70;99.90
21744;DHT22;11034;48.556;9.342;2023-07-13T21:06:27;19.80;99.90
21744;DHT22;11034;48.556;9.342;2023-07-13T21:08:57;19.70;99.90
21744;DHT22;11034;48.556;9.342;2023-07-13T21:11:27;19.60;99.90
21744;DHT22;11034;48.556;9.342;2023-07-13T21:13:55;19.50;99.90
21744;DHT22;11034;48.556;9.342;2023-07-13T21:16:26;19.40;99.90
21744;DHT22;11034;48.556;9.342;2023-07-13T21:18:54;19.30;99.90
21744;DHT22;11034;48.556;9.342;2023-07-13T21:21:24;19.20;99.90
21744;DHT22;11034;48.556;9.342;2023-07-13T21:23:53;19.10;99.90
21744;DHT22;11034;48.556;9.342;2023-07-13T21:26:21;19.00;99.90
21744;DHT22;11034;48.556;9.342;2023-07-13T21:28:49;19.00;99.90
21744;DHT22;11034;48.556;9.342;2023-07-13T21:31:22;19.00;99.90
21744;DHT22;11034;48.556;9.342;2023-07-13T21:33:55;18.90;99.90
21744;DHT22;11034;48.556;9.342;2023-07-13T21:36:25;18.90;99.90
21744;DHT22;11034;48.556;9.342;2023-07-13T21:38:55;18.80;99.90
21744;DHT22;11034;48.556;9.342;2023-07-13T21:41:27;18.80;99.90
21744;DHT22;11034;48.556;9.342;2023-07-13T21:43:56;18.80;99.90
21744;DHT22;11034;48.556;9.342;2023-07-13T21:46:27;18.70;99.90
21744;DHT22;11034;48.556;9.342;2023-07-13T21:48:57;18.70;99.90
21744;DHT22;11034;48.556;9.342;2023-07-13T21:51:27;18.60;99.90
21744;DHT22;11034;48.556;9.342;2023-07-13T21:53:55;18.60;99.90
21744;DHT22;11034;48.556;9.342;2023-07-13T21:56:23;18.60;99.90
21744;DHT22;11034;48.556;9.342;2023-07-13T21:58:51;18.60;99.90
21744;DHT22;11034;48.556;9.342;2023-07-13T22:01:22;18.50;99.90
21744;DHT22;11034;48.556;9.342;2023-07-13T22:03:54;18.50;99.90
21744;DHT22;11034;48.556;9.342;2023-07-13T22:06:27;18.50;99.90
21744;DHT22;11034;48.556;9.342;2023-07-13T22:08:56;18.50;99.90
21744;DHT22;11034;48.556;9.342;2023-07-13T22:11:25;18.40;99.90
21744;DHT22;11034;48.556;9.342;2023-07-13T22:13:54;18.40;99.90
21744;DHT22;11034;48.556;9.342;2023-07-13T22:16:25;18.40;99.90
21744;DHT22;11034;48.556;9.342;2023-07-13T22:18:57;18.40;99.90
21744;DHT22;11034;48.556;9.342;2023-07-13T22:21:29;18.40;99.90
21744;DHT22;11034;48.556;9.342;2023-07-13T22:23:58;18.40;99.90
21744;DHT22;11034;48.556;9.342;2023-07-13T22:26:29;18.30;99.90
21744;DHT22;11034;48.556;9.342;2023-07-13T22:28:58;18.30;99.90
21744;DHT22;11034;48.556;9.342;2023-07-13T22:31:28;18.20;99.90
21744;DHT22;11034;48.556;9.342;2023-07-13T22:33:56;18.00;99.90
21744;DHT22;11034;48.556;9.342;2023-07-13T22:36:24;17.90;99.90
21744;DHT22;11034;48.556;9.342;2023-07-13T22:38:54;17.90;99.90
21744;DHT22;11034;48.556;9.342;2023-07-13T22:41:22;17.90;99.90
21744;DHT22;11034;48.556;9.342;2023-07-13T22:43:50;18.00;99.90
21744;DHT22;11034;48.556;9.342;2023-07-13T22:46:25;17.90;99.90
21744;DHT22;11034;48.556;9.342;2023-07-13T22:48:56;17.90;99.90
21744;DHT22;11034;48.556;9.342;2023-07-13T22:51:25;17.80;99.90
21744;DHT22;11034;48.556;9.342;2023-07-13T22:53:55;17.80;99.90
21744;DHT22;11034;48.556;9.342;2023-07-13T22:56:32;17.80;99.90
21744;DHT22;11034;48.556;9.342;2023-07-13T22:59:10;17.80;99.90
21744;DHT22;11034;48.556;9.342;2023-07-13T23:01:39;17.80;99.90
21744;DHT22;11034;48.556;9.342;2023-07-13T23:04:15;17.80;99.90
21744;DHT22;11034;48.556;9.342;2023-07-13T23:06:45;17.80;99.90
21744;DHT22;11034;48.556;9.342;2023-07-13T23:09:22;17.80;99.90
21744;DHT22;11034;48.556;9.342;2023-07-13T23:11:50;17.80;99.90
21744;DHT22;11034;48.556;9.342;2023-07-13T23:14:19;17.80;99.90
21744;DHT22;11034;48.556;9.342;2023-07-13T23:16:48;17.80;99.90
21744;DHT22;11034;48.556;9.342;2023-07-13T23:19:18;17.80;99.90
21744;DHT22;11034;48.556;9.342;2023-07-13T23:21:50;17.70;99.90
21744;DHT22;11034;48.556;9.342;2023-07-13T23:24:20;17.70;99.90
21744;DHT22;11034;48.556;9.342;2023-07-13T23:26:51;17.70;99.90
21744;DHT22;11034;48.556;9.342;2023-07-13T23:29:19;17.60;99.90
21744;DHT22;11034;48.556;9.342;2023-07-13T23:31:47;17.60;99.90
21744;DHT22;11034;48.556;9.342;2023-07-13T23:34:18;17.70;99.90
21744;DHT22;11034;48.556;9.342;2023-07-13T23:36:51;17.70;99.90
21744;DHT22;11034;48.556;9.342;2023-07-13T23:39:21;17.70;99.90
21744;DHT22;11034;48.556;9.342;2023-07-13T23:41:49;17.60;99.90
21744;DHT22;11034;48.556;9.342;2023-07-13T23:44:17;17.60;99.90
21744;DHT22;11034;48.556;9.342;2023-07-13T23:46:48;17.50;99.90
21744;DHT22;11034;48.556;9.342;2023-07-13T23:49:21;17.50;99.90
21744;DHT22;11034;48.556;9.342;2023-07-13T23:51:53;17.50;99.90
21744;DHT22;11034;48.556;9.342;2023-07-13T23:54:25;17.40;99.90
21744;DHT22;11034;48.556;9.342;2023-07-13T23:56:54;17.40;99.90
21744;DHT22;11034;48.556;9.342;2023-07-13T23:59:22;17.30;99.90
